Time;durP1;ratioP1;P1;durP2;ratioP2;P2;SDS_P1;SDS_P2;PMS_P1;PMS_P2;Temp;Humidity;BMP_temperature;BMP_pressure;BME280_temperature;BME280_humidity;BME280_pressure;Samples;Min_cycle;Max_cycle;Signal;HPM_P1;HPM_P2
2023/08/12 00:00:12;;;;;;;9.23;6.20;;;;;;;21.10;97.89;98467.25;4145738;28;21199;-73
2023/08/12 00:02:21;;;;;;;6.67;5.20;;;;;;;21.08;98.76;98469.19;4157432;28;20653;-74
2023/08/12 00:04:24;;;;;;;7.20;5.33;;;;;;;21.05;98.75;98464.22;4140687;28;20773;-73
2023/08/12 00:06:28;;;;;;;5.90;5.30;;;;;;;21.01;98.22;98453.09;4141855;28;20672;-74
2023/08/12 00:08:31;;;;;;;9.93;6.27;;;;;;;21.00;98.28;98455.91;4120705;28;20692;-73
2023/08/12 00:10:34;;;;;;;6.40;4.93;;;;;;;20.95;98.55;98458.22;4145620;28;21280;-73
2023/08/12 00:12:39;;;;;;;6.43;5.27;;;;;;;20.92;99.33;98464.66;4155420;28;20636;-73
2023/08/12 00:14:42;;;;;;;6.93;4.97;;;;;;;20.90;98.60;98461.34;4158310;28;20663;-73
2023/08/12 00:16:45;;;;;;;6.87;6.13;;;;;;;20.87;98.21;98464.31;4158445;28;20738;-81
2023/08/12 00:18:49;;;;;;;6.97;5.27;;;;;;;20.87;98.85;98460.84;4160356;28;20783;-81
2023/08/12 00:20:52;;;;;;;8.10;5.20;;;;;;;20.84;98.23;98459.34;4139621;28;20637;-81
2023/08/12 00:22:55;;;;;;;6.93;5.27;;;;;;;20.82;98.49;98452.50;4136749;28;20645;-81
2023/08/12 00:24:59;;;;;;;5.77;5.17;;;;;;;20.82;98.88;98452.50;4156278;28;20994;-80
2023/08/12 00:27:02;;;;;;;6.30;5.43;;;;;;;20.80;100.00;98449.19;4154972;28;20641;-81
2023/08/12 00:29:05;;;;;;;6.30;5.70;;;;;;;20.79;99.05;98460.78;4126923;28;20673;-81
2023/08/12 00:31:08;;;;;;;7.20;5.20;;;;;;;20.75;99.20;98451.50;4144425;28;21214;-81
2023/08/12 00:33:11;;;;;;;5.80;5.20;;;;;;;20.73;100.00;98448.16;4123106;28;20642;-79
2023/08/12 00:35:16;;;;;;;7.07;5.20;;;;;;;20.73;99.72;98447.34;4128132;28;20660;-81
2023/08/12 00:37:19;;;;;;;6.07;4.97;;;;;;;20.67;98.27;98435.53;4153625;28;20648;-80
2023/08/12 00:39:22;;;;;;;6.33;5.60;;;;;;;20.66;99.60;98436.50;4144283;28;20706;-81
2023/08/12 00:41:25;;;;;;;6.43;5.73;;;;;;;20.63;98.83;98423.56;4137725;28;20691;-80
2023/08/12 00:43:28;;;;;;;10.63;6.50;;;;;;;20.61;99.00;98430.00;4156774;28;20679;-81
2023/08/12 00:45:31;;;;;;;6.97;5.50;;;;;;;20.60;99.88;98425.72;4140458;28;20693;-81
2023/08/12 00:47:35;;;;;;;9.27;5.90;;;;;;;20.58;99.33;98425.88;4158533;28;21230;-81
2023/08/12 00:49:40;;;;;;;7.73;6.00;;;;;;;20.57;100.00;98421.56;4145103;28;20640;-81
2023/08/12 00:51:45;;;;;;;6.17;5.57;;;;;;;20.56;100.00;98419.88;4119883;28;21125;-82
2023/08/12 00:53:49;;;;;;;8.10;6.57;;;;;;;20.58;100.00;98419.72;4135727;28;20641;-81
2023/08/12 00:55:52;;;;;;;7.50;6.40;;;;;;;20.57;100.00;98421.56;4155884;28;20688;-81
2023/08/12 00:57:55;;;;;;;9.00;6.40;;;;;;;20.58;100.00;98423.22;4139458;28;20669;-80
2023/08/12 00:59:58;;;;;;;7.63;6.23;;;;;;;20.57;99.46;98418.09;4125250;28;20713;-81
2023/08/12 01:02:02;;;;;;;9.03;6.73;;;;;;;20.56;99.79;98419.88;4127818;28;21104;-81
2023/08/12 01:04:05;;;;;;;8.23;6.63;;;;;;;20.54;99.81;98413.91;4145392;28;20654;-81
2023/08/12 01:06:09;;;;;;;7.60;6.53;;;;;;;20.51;100.00;98411.59;4154225;28;20639;-81
2023/08/12 01:08:13;;;;;;;7.90;6.30;;;;;;;20.51;100.00;98413.41;4141697;28;20635;-81
2023/08/12 01:10:16;;;;;;;8.80;6.50;;;;;;;20.49;99.49;98405.63;4140966;28;20715;-81
2023/08/12 01:12:25;;;;;;;9.20;6.90;;;;;;;20.47;100.00;98407.56;4137153;28;22253;-81
2023/08/12 01:14:31;;;;;;;8.50;6.80;;;;;;;20.46;100.00;98405.06;4143585;28;20636;-80
2023/08/12 01:16:36;;;;;;;7.50;6.20;;;;;;;20.44;100.00;98399.13;4155475;28;20660;-81
2023/08/12 01:18:41;;;;;;;7.70;6.10;;;;;;;20.43;99.82;98394.78;4144847;28;21303;-82
2023/08/12 01:20:44;;;;;;;8.73;6.27;;;;;;;20.41;100.00;98399.44;4142672;28;20783;-81
2023/08/12 01:22:47;;;;;;;7.97;6.57;;;;;;;20.38;100.00;98395.25;4125505;28;20633;-81
2023/08/12 01:24:52;;;;;;;7.03;5.90;;;;;;;20.36;100.00;98391.94;4135292;28;21044;-81
2023/08/12 01:26:55;;;;;;;7.00;6.00;;;;;;;20.33;100.00;98389.63;4145154;28;20643;-73
2023/08/12 01:28:58;;;;;;;7.90;6.10;;;;;;;20.31;100.00;98387.28;4138462;28;20713;-74
2023/08/12 01:31:08;;;;;;;7.17;6.10;;;;;;;20.29;99.97;98390.09;4151749;28;20639;-72
2023/08/12 01:33:16;;;;;;;7.43;6.20;;;;;;;20.27;99.54;98384.13;4132927;28;21004;-73
2023/08/12 01:35:22;;;;;;;8.13;5.90;;;;;;;20.25;99.41;98387.91;4117611;28;20662;-73
2023/08/12 01:37:28;;;;;;;8.60;5.70;;;;;;;20.23;100.00;98387.25;4141878;28;20635;-73
2023/08/12 01:39:32;;;;;;;8.33;6.90;;;;;;;20.20;100.00;98387.56;4140452;28;20688;-73
2023/08/12 01:41:37;;;;;;;8.00;5.73;;;;;;;20.17;98.95;98386.03;4151629;28;20636;-74
2023/08/12 01:43:41;;;;;;;8.50;5.53;;;;;;;20.14;100.00;98380.22;4150805;28;20625;-72
2023/08/12 01:45:44;;;;;;;8.00;6.23;;;;;;;20.11;100.00;98389.31;4151736;28;20625;-72
2023/08/12 01:47:50;;;;;;;7.07;5.50;;;;;;;20.10;100.00;98378.88;4150998;28;20726;-72
2023/08/12 01:49:53;;;;;;;6.30;5.70;;;;;;;20.08;99.23;98383.50;4148532;28;21195;-73
2023/08/12 01:51:56;;;;;;;10.23;6.60;;;;;;;20.07;100.00;98385.34;4137113;28;20689;-73
2023/08/12 01:53:59;;;;;;;6.87;6.10;;;;;;;20.05;99.90;98379.34;4138085;28;20739;-72
2023/08/12 01:56:02;;;;;;;6.80;6.10;;;;;;;20.04;99.30;98387.44;4136500;28;20723;-74
2023/08/12 01:58:07;;;;;;;7.00;6.27;;;;;;;20.03;99.83;98385.81;4141269;28;21239;-74
2023/08/12 02:00:10;;;;;;;6.90;5.90;;;;;;;20.00;99.40;98384.28;4147337;28;20667;-73
2023/08/12 02:02:20;;;;;;;6.47;5.87;;;;;;;19.99;100.00;98387.09;4134379;28;20632;-75
2023/08/12 02:04:23;;;;;;;7.20;6.10;;;;;;;19.97;99.93;98378.47;4147278;28;21234;-75
2023/08/12 02:06:26;;;;;;;7.00;6.30;;;;;;;19.96;99.93;98387.41;4159506;28;20634;-74
2023/08/12 02:08:29;;;;;;;8.57;6.80;;;;;;;19.93;100.00;98383.22;4153024;28;21404;-74
2023/08/12 02:10:33;;;;;;;7.53;5.97;;;;;;;19.94;100.00;98384.09;4127168;28;20665;-75
2023/08/12 02:12:36;;;;;;;8.63;6.80;;;;;;;19.93;100.00;98385.06;4145591;28;20629;-75
2023/08/12 02:14:41;;;;;;;6.93;6.10;;;;;;;19.93;100.00;98380.56;4158129;28;20700;-75
2023/08/12 02:16:44;;;;;;;6.67;5.70;;;;;;;19.93;100.00;98383.22;4153712;28;20618;-75
2023/08/12 02:18:47;;;;;;;8.37;6.17;;;;;;;19.93;100.00;98377.94;4140099;28;21109;-74
2023/08/12 02:20:49;;;;;;;6.03;5.43;;;;;;;19.93;100.00;98375.28;4142888;28;20722;-76
2023/08/12 02:22:53;;;;;;;7.93;6.10;;;;;;;19.92;100.00;98378.09;4143484;28;21066;-73
2023/08/12 02:24:55;;;;;;;10.67;6.00;;;;;;;19.92;100.00;98380.72;4146379;28;20622;-73
2023/08/12 02:26:58;;;;;;;8.87;6.80;;;;;;;19.92;100.00;98375.44;4160101;28;20680;-73
2023/08/12 02:29:01;;;;;;;8.50;7.60;;;;;;;19.91;100.00;98382.56;4132218;28;20636;-73
2023/08/12 02:31:06;;;;;;;7.30;6.33;;;;;;;19.91;100.00;98379.09;4160566;28;20660;-74
2023/08/12 02:33:09;;;;;;;8.03;6.30;;;;;;;19.90;100.00;98377.41;4158090;28;20628;-73
2023/08/12 02:35:13;;;;;;;7.57;6.20;;;;;;;19.90;100.00;98372.13;4144083;28;20628;-81
2023/08/12 02:37:17;;;;;;;10.93;6.13;;;;;;;19.90;100.00;98375.59;4149213;28;20630;-80
2023/08/12 02:39:21;;;;;;;7.90;6.20;;;;;;;19.90;100.00;98375.59;4151161;28;21063;-80
2023/08/12 02:41:23;;;;;;;9.63;6.50;;;;;;;19.89;100.00;98362.50;4145998;28;21086;-80
2023/08/12 02:43:27;;;;;;;6.77;6.07;;;;;;;19.88;100.00;98369.63;4157415;28;21187;-81
2023/08/12 02:45:30;;;;;;;7.77;6.63;;;;;;;19.89;100.00;98367.81;4159891;28;20677;-80
2023/08/12 02:47:35;;;;;;;7.10;6.40;;;;;;;19.88;100.00;98368.81;4144466;28;20677;-80
2023/08/12 02:49:38;;;;;;;9.10;7.20;;;;;;;19.87;100.00;98368.00;4144339;28;20995;-81
2023/08/12 02:51:41;;;;;;;8.67;7.20;;;;;;;19.88;100.00;98364.34;4158275;28;20684;-80
2023/08/12 02:53:45;;;;;;;7.67;6.83;;;;;;;19.90;100.00;98364.19;4129582;28;20631;-81
2023/08/12 02:55:48;;;;;;;8.30;6.10;;;;;;;19.89;100.00;98358.06;4147131;28;20635;-81
2023/08/12 02:57:51;;;;;;;6.03;5.43;;;;;;;19.90;100.00;98357.06;4161389;28;20629;-79
2023/08/12 02:59:54;;;;;;;7.00;6.13;;;;;;;19.91;100.00;98355.25;4144040;28;20685;-83
2023/08/12 03:01:57;;;;;;;9.43;6.70;;;;;;;19.88;100.00;98353.75;4142320;28;20659;-80
2023/08/12 03:04:02;;;;;;;7.07;6.10;;;;;;;19.89;100.00;98343.97;4143572;28;21401;-83
2023/08/12 03:06:06;;;;;;;7.73;6.30;;;;;;;19.90;100.00;98359.69;4139272;28;20730;-83
2023/08/12 03:08:08;;;;;;;9.73;6.30;;;;;;;19.91;100.00;98356.06;4146139;28;20649;-82
2023/08/12 03:10:13;;;;;;;7.83;6.30;;;;;;;19.93;100.00;98350.63;4129197;28;20667;-81
2023/08/12 03:12:16;;;;;;;9.40;6.37;;;;;;;19.94;100.00;98350.47;4151712;28;20625;-80
2023/08/12 03:14:18;;;;;;;11.20;7.60;;;;;;;19.93;100.00;98351.44;4156729;28;20626;-80
2023/08/12 03:16:22;;;;;;;7.43;6.33;;;;;;;19.93;100.00;98353.28;4138240;28;20694;-80
2023/08/12 03:18:25;;;;;;;7.20;6.23;;;;;;;19.92;100.00;98355.09;4122479;28;20643;-80
2023/08/12 03:20:30;;;;;;;10.00;6.57;;;;;;;19.93;100.00;98351.44;4142733;28;21194;-82
2023/08/12 03:22:33;;;;;;;6.97;6.03;;;;;;;19.93;100.00;98354.09;4156979;28;20630;-82
2023/08/12 03:24:36;;;;;;;8.10;7.00;;;;;;;19.94;100.00;98353.13;4151209;28;20722;-82
2023/08/12 03:26:40;;;;;;;9.40;6.30;;;;;;;19.94;100.00;98350.47;4144808;28;20635;-82
2023/08/12 03:28:43;;;;;;;7.13;6.43;;;;;;;19.96;100.00;98355.63;4153527;28;20614;-81
2023/08/12 03:30:54;;;;;;;7.37;5.70;;;;;;;19.94;100.00;98349.66;4141112;28;20648;-80
2023/08/12 03:32:59;;;;;;;6.80;5.77;;;;;;;19.95;100.00;98353.94;4139428;28;20620;-80
2023/08/12 03:35:07;;;;;;;7.47;6.27;;;;;;;19.94;100.00;98342.53;4135711;28;21163;-80
2023/08/12 03:37:12;;;;;;;6.80;5.83;;;;;;;19.93;100.00;98343.50;4129417;28;20644;-77
2023/08/12 03:39:16;;;;;;;6.77;6.07;;;;;;;19.93;100.00;98345.34;4150287;28;20646;-81
2023/08/12 03:41:20;;;;;;;7.60;6.47;;;;;;;19.93;100.00;98347.97;4145671;28;20718;-80
2023/08/12 03:43:23;;;;;;;8.50;5.83;;;;;;;19.93;100.00;98348.81;4146288;28;20632;-80
2023/08/12 03:45:26;;;;;;;6.30;5.70;;;;;;;19.93;100.00;98351.44;4125470;28;21294;-80
2023/08/12 03:47:30;;;;;;;7.17;6.37;;;;;;;19.93;100.00;98350.63;4136733;28;21020;-73
2023/08/12 03:49:34;;;;;;;7.60;6.03;;;;;;;19.96;100.00;98351.13;4135968;28;20690;-72
2023/08/12 03:51:37;;;;;;;6.20;5.60;;;;;;;19.96;100.00;98339.72;4133853;28;21199;-74
2023/08/12 03:53:41;;;;;;;6.53;5.83;;;;;;;19.94;100.00;98333.75;4135713;28;21173;-72
2023/08/12 03:55:45;;;;;;;6.10;5.50;;;;;;;19.94;100.00;98339.88;4128274;28;20645;-72
2023/08/12 03:57:51;;;;;;;6.80;6.10;;;;;;;19.96;100.00;98339.72;4140532;28;21027;-73
2023/08/12 03:59:55;;;;;;;7.77;6.97;;;;;;;19.96;100.00;98343.19;4128871;28;20688;-73
2023/08/12 04:01:59;;;;;;;7.40;6.33;;;;;;;19.96;100.00;98340.53;4127057;28;20697;-73
2023/08/12 04:04:01;;;;;;;7.93;6.07;;;;;;;19.98;100.00;98343.03;4144653;28;20666;-73
2023/08/12 04:06:04;;;;;;;10.10;6.40;;;;;;;19.98;100.00;98350.97;4134883;28;21278;-73
2023/08/12 04:08:08;;;;;;;7.70;6.90;;;;;;;19.98;100.00;98346.53;4145571;28;20619;-73
2023/08/12 04:10:12;;;;;;;8.90;6.37;;;;;;;20.00;100.00;98351.69;4150412;28;20625;-74
2023/08/12 04:12:15;;;;;;;6.90;5.80;;;;;;;20.00;100.00;98346.38;4153067;28;20661;-72
2023/08/12 04:14:19;;;;;;;7.23;6.20;;;;;;;20.00;100.00;98351.69;4138172;28;20653;-72
2023/08/12 04:16:22;;;;;;;7.67;6.23;;;;;;;20.01;100.00;98359.47;4146122;28;20711;-74
2023/08/12 04:18:26;;;;;;;5.90;5.27;;;;;;;20.02;100.00;98344.41;4127331;28;20740;-74
2023/08/12 04:20:30;;;;;;;7.20;6.50;;;;;;;20.01;100.00;98351.53;4160312;28;20663;-74
2023/08/12 04:22:34;;;;;;;6.23;5.63;;;;;;;20.03;100.00;98348.72;4138948;28;20748;-74
2023/08/12 04:24:37;;;;;;;6.73;5.57;;;;;;;20.04;100.00;98359.16;4123579;28;20727;-77
2023/08/12 04:26:41;;;;;;;6.77;5.97;;;;;;;20.06;100.00;98356.34;4139773;28;20696;-73
2023/08/12 04:28:45;;;;;;;10.20;6.37;;;;;;;20.06;100.00;98359.81;4145703;28;20620;-72
2023/08/12 04:30:50;;;;;;;6.07;5.47;;;;;;;20.07;100.00;98358.84;4144536;28;20630;-72
2023/08/12 04:32:53;;;;;;;7.10;6.40;;;;;;;20.07;100.00;98361.50;4133433;28;20662;-75
2023/08/12 04:34:57;;;;;;;6.50;5.90;;;;;;;20.08;100.00;98360.47;4145452;28;20626;-72
2023/08/12 04:37:01;;;;;;;6.10;5.37;;;;;;;20.10;100.00;98374.44;4144527;28;20647;-72
2023/08/12 04:39:05;;;;;;;7.07;6.07;;;;;;;20.11;100.00;98369.94;4145776;28;20656;-72
2023/08/12 04:41:08;;;;;;;6.60;5.77;;;;;;;20.12;100.00;98367.13;4125846;28;21002;-74
2023/08/12 04:43:13;;;;;;;6.67;5.63;;;;;;;20.13;100.00;98363.50;4157218;28;21023;-72
2023/08/12 04:45:17;;;;;;;6.47;5.87;;;;;;;20.13;100.00;98362.66;4158144;28;20641;-73
2023/08/12 04:47:21;;;;;;;6.40;5.80;;;;;;;20.13;100.00;98360.00;4145434;28;20612;-75
2023/08/12 04:49:25;;;;;;;6.17;5.57;;;;;;;20.15;100.00;98368.66;4133602;28;20622;-75
2023/08/12 04:51:28;;;;;;;6.57;5.90;;;;;;;20.16;100.00;98362.34;4142478;28;20648;-74
2023/08/12 04:53:32;;;;;;;8.00;5.90;;;;;;;20.16;100.00;98365.00;4141048;28;20637;-74
2023/08/12 04:55:36;;;;;;;7.40;5.73;;;;;;;20.17;100.00;98369.31;4142530;28;20684;-75
2023/08/12 04:57:39;;;;;;;6.60;5.90;;;;;;;20.18;100.00;98371.81;4156644;28;20686;-74
2023/08/12 04:59:43;;;;;;;7.73;5.70;;;;;;;20.18;100.00;98358.56;4154509;28;20615;-73
2023/08/12 05:01:47;;;;;;;6.53;5.83;;;;;;;20.19;100.00;98367.34;4122121;28;20744;-73
2023/08/12 05:04:07;;;;;;;6.90;5.90;;;;;;;20.21;100.00;98381.28;4121407;28;20661;-73
2023/08/12 05:06:10;;;;;;;6.57;5.83;;;;;;;20.23;100.00;98380.13;4136742;28;21103;-72
2023/08/12 05:08:13;;;;;;;7.57;6.17;;;;;;;20.25;100.00;98377.31;4151976;28;20640;-72
2023/08/12 05:10:16;;;;;;;7.23;5.70;;;;;;;20.29;100.00;98383.97;4139815;28;20719;-73
2023/08/12 05:12:19;;;;;;;6.73;6.00;;;;;;;20.32;100.00;98387.94;4138735;28;20721;-73
2023/08/12 05:14:23;;;;;;;5.67;5.17;;;;;;;20.37;100.00;98384.81;4139203;28;20652;-72
2023/08/12 05:16:28;;;;;;;7.20;5.60;;;;;;;20.43;100.00;98385.03;4137061;28;21216;-73
2023/08/12 05:18:33;;;;;;;6.73;6.03;;;;;;;20.46;100.00;98382.06;4136195;28;20973;-72
2023/08/12 05:20:36;;;;;;;6.53;5.43;;;;;;;20.49;100.00;98373.81;4136377;28;21148;-73
2023/08/12 05:22:39;;;;;;;7.50;6.70;;;;;;;20.50;100.00;98374.63;4120071;28;20663;-72
2023/08/12 05:24:42;;;;;;;8.40;6.07;;;;;;;20.49;100.00;98373.81;4137555;28;20771;-73
2023/08/12 05:26:45;;;;;;;7.07;6.20;;;;;;;20.47;100.00;98389.00;4140958;28;20681;-73
2023/08/12 05:28:47;;;;;;;7.67;6.43;;;;;;;20.48;100.00;98393.34;4157235;28;20639;-74
2023/08/12 05:30:50;;;;;;;7.47;6.67;;;;;;;20.49;100.00;98384.41;4151111;28;20619;-75
2023/08/12 05:32:55;;;;;;;6.57;5.97;;;;;;;20.52;100.00;98381.44;4151781;28;20962;-73
2023/08/12 05:34:59;;;;;;;8.00;6.13;;;;;;;20.51;100.00;98382.41;4143245;28;20647;-74
2023/08/12 05:37:02;;;;;;;7.03;6.17;;;;;;;20.54;100.00;98378.63;4142839;28;21030;-73
2023/08/12 05:39:05;;;;;;;8.03;5.83;;;;;;;20.56;100.00;98396.03;4152260;28;21068;-73
2023/08/12 05:41:09;;;;;;;8.73;6.93;;;;;;;20.57;100.00;98399.53;4153742;28;20630;-73
2023/08/12 05:43:12;;;;;;;6.53;5.83;;;;;;;20.59;100.00;98397.53;4153247;28;20667;-73
2023/08/12 05:45:15;;;;;;;7.70;5.90;;;;;;;20.64;100.00;98381.97;4151873;28;20663;-75
2023/08/12 05:47:18;;;;;;;7.17;6.47;;;;;;;20.66;100.00;98379.97;4144547;28;20716;-73
2023/08/12 05:49:23;;;;;;;6.73;6.03;;;;;;;20.70;100.00;98384.03;4141046;28;20662;-73
2023/08/12 05:51:26;;;;;;;6.67;5.97;;;;;;;20.71;100.00;98389.16;4152957;28;20629;-72
2023/08/12 05:53:32;;;;;;;7.50;5.73;;;;;;;20.72;100.00;98368.78;4153810;28;20739;-72
2023/08/12 05:55:35;;;;;;;7.33;6.00;;;;;;;20.73;100.00;98363.31;4154391;28;20641;-73
2023/08/12 05:57:37;;;;;;;9.33;7.00;;;;;;;20.70;100.00;98354.84;4150390;28;21251;-72
2023/08/12 05:59:41;;;;;;;9.20;6.10;;;;;;;20.70;100.00;98342.41;4148062;28;20624;-72
2023/08/12 06:01:44;;;;;;;6.87;6.20;;;;;;;20.68;100.00;98340.94;4142542;28;20740;-73
2023/08/12 06:03:47;;;;;;;8.87;6.20;;;;;;;20.72;100.00;98359.00;4154974;28;20693;-73
2023/08/12 06:05:50;;;;;;;7.13;6.43;;;;;;;20.78;100.00;98379.59;4131718;28;20679;-80
2023/08/12 06:07:53;;;;;;;7.20;5.73;;;;;;;20.81;100.00;98387.22;4151501;28;20705;-75
2023/08/12 06:09:55;;;;;;;5.93;5.33;;;;;;;20.88;100.00;98385.56;4141093;28;20636;-73
2023/08/12 06:11:58;;;;;;;7.60;6.80;;;;;;;20.91;100.00;98396.72;4140206;28;20632;-73
2023/08/12 06:14:02;;;;;;;6.10;5.50;;;;;;;20.88;100.00;98385.56;4143541;28;20979;-73
2023/08/12 06:16:05;;;;;;;7.13;6.13;;;;;;;20.91;100.00;98379.94;4135374;28;20623;-72
2023/08/12 06:18:08;;;;;;;6.43;5.83;;;;;;;21.01;100.00;98378.81;4144231;28;20642;-73
2023/08/12 06:20:13;;;;;;;6.90;6.20;;;;;;;21.07;100.00;98394.09;4132237;28;20629;-72
2023/08/12 06:22:17;;;;;;;8.03;6.00;;;;;;;21.09;100.00;98391.28;4155831;28;20705;-72
2023/08/12 06:24:20;;;;;;;8.30;6.43;;;;;;;21.05;100.00;98398.72;4134350;28;20640;-74
2023/08/12 06:26:23;;;;;;;7.20;6.50;;;;;;;21.06;100.00;98399.56;4151632;28;20628;-73
2023/08/12 06:28:27;;;;;;;7.10;6.33;;;;;;;21.09;100.00;98392.09;4150002;28;20670;-73
2023/08/12 06:30:30;;;;;;;7.00;6.30;;;;;;;21.15;100.00;98377.34;4128789;28;20643;-73
2023/08/12 06:32:34;;;;;;;8.70;5.87;;;;;;;21.17;100.00;98375.38;4152857;28;20638;-72
2023/08/12 06:34:39;;;;;;;7.13;6.37;;;;;;;21.21;100.00;98374.88;4152363;28;21116;-73
2023/08/12 06:36:44;;;;;;;9.50;6.50;;;;;;;21.27;100.00;98391.97;4160903;28;20635;-73
2023/08/12 06:38:48;;;;;;;6.97;5.90;;;;;;;21.32;100.00;98393.97;4148702;28;20749;-72
2023/08/12 06:40:52;;;;;;;8.00;6.00;;;;;;;21.39;100.00;98383.53;4131844;28;21205;-72
2023/08/12 06:42:55;;;;;;;6.50;5.90;;;;;;;21.45;100.00;98385.53;4159700;28;20651;-73
2023/08/12 06:45:00;;;;;;;8.33;5.60;;;;;;;21.53;100.00;98382.91;4148647;28;20723;-73
2023/08/12 06:47:04;;;;;;;6.43;5.83;;;;;;;21.59;100.00;98380.44;4140539;28;21187;-72
2023/08/12 06:49:08;;;;;;;8.00;7.20;;;;;;;21.65;100.00;98376.28;4160039;28;20683;-73
2023/08/12 06:51:10;;;;;;;7.13;6.43;;;;;;;21.69;100.00;98372.28;4149045;28;20617;-73
2023/08/12 06:53:14;;;;;;;6.30;5.70;;;;;;;21.71;100.00;98360.53;4164535;28;20741;-72
2023/08/12 06:55:19;;;;;;;7.57;6.07;;;;;;;21.74;100.00;98359.34;4139464;28;20633;-73
2023/08/12 06:57:24;;;;;;;7.50;5.93;;;;;;;21.75;100.00;98351.19;4158634;28;20647;-74
2023/08/12 06:59:27;;;;;;;6.90;6.20;;;;;;;21.79;100.00;98355.19;4157174;28;20626;-74
2023/08/12 07:01:31;;;;;;;7.70;6.40;;;;;;;21.82;100.00;98358.34;4161045;28;20641;-73
2023/08/12 07:03:34;;;;;;;7.00;6.30;;;;;;;21.91;100.00;98359.16;4157709;28;20668;-73
2023/08/12 07:05:37;;;;;;;7.73;6.67;;;;;;;22.03;100.00;98365.81;4161050;28;20736;-74
2023/08/12 07:07:40;;;;;;;8.17;6.77;;;;;;;22.16;100.00;98366.09;4157707;28;20651;-72
2023/08/12 07:09:44;;;;;;;7.70;6.63;;;;;;;22.30;100.00;98369.75;4154197;28;20623;-73
2023/08/12 07:11:48;;;;;;;8.30;7.27;;;;;;;22.44;100.00;98379.66;4124694;28;20643;-73
2023/08/12 07:13:51;;;;;;;6.80;6.10;;;;;;;22.56;100.00;98372.97;4156236;28;20635;-72
2023/08/12 07:15:55;;;;;;;8.93;7.60;;;;;;;22.65;100.00;98374.59;4130496;28;20642;-73
2023/08/12 07:17:57;;;;;;;7.50;6.70;;;;;;;22.68;100.00;98384.91;4158809;28;20637;-80
2023/08/12 07:20:00;;;;;;;6.70;6.00;;;;;;;22.69;100.00;98388.38;4146417;28;20625;-81
2023/08/12 07:22:04;;;;;;;6.73;5.97;;;;;;;22.70;100.00;98396.19;4136649;28;20650;-80
2023/08/12 07:24:07;;;;;;;6.40;5.80;;;;;;;22.72;100.00;98391.53;4156916;28;20662;-81
2023/08/12 07:26:10;;;;;;;7.00;6.30;;;;;;;22.76;100.00;98398.16;4140678;28;20686;-81
2023/08/12 07:28:15;;;;;;;7.03;6.23;;;;;;;22.84;100.00;98398.97;4130356;28;20624;-81
2023/08/12 07:30:18;;;;;;;6.90;6.20;;;;;;;22.93;100.00;98391.78;4139193;28;20664;-78
2023/08/12 07:32:22;;;;;;;7.60;6.33;;;;;;;23.13;100.00;98398.38;4155741;28;21444;-81
2023/08/12 07:34:25;;;;;;;7.17;6.47;;;;;;;23.32;100.00;98391.59;4145000;28;20759;-81
2023/08/12 07:36:33;;;;;;;7.50;6.80;;;;;;;23.50;96.79;98393.94;4137211;28;21054;-80
2023/08/12 07:38:37;;;;;;;7.77;6.37;;;;;;;23.95;97.51;98400.97;4136692;28;20634;-80
2023/08/12 07:40:41;;;;;;;7.50;6.50;;;;;;;24.54;94.79;98408.91;4146396;28;20629;-82
2023/08/12 07:42:44;;;;;;;6.83;6.13;;;;;;;24.86;95.36;98412.00;4156725;28;20631;-81
2023/08/12 07:44:49;;;;;;;7.10;6.33;;;;;;;24.80;91.27;98403.91;4138504;28;20673;-81
2023/08/12 07:46:52;;;;;;;6.50;5.87;;;;;;;24.76;91.46;98402.63;4130002;28;20641;-81
2023/08/12 07:48:55;;;;;;;7.30;6.60;;;;;;;24.78;91.65;98400.63;4148865;28;20661;-80
2023/08/12 07:50:57;;;;;;;7.20;6.50;;;;;;;24.98;91.96;98397.16;4139244;28;21180;-81
2023/08/12 07:53:00;;;;;;;6.57;5.97;;;;;;;25.22;92.13;98395.03;4152914;28;20633;-81
2023/08/12 07:55:04;;;;;;;7.73;6.93;;;;;;;25.32;90.96;98392.88;4157611;28;21234;-82
2023/08/12 07:57:07;;;;;;;6.60;5.90;;;;;;;25.31;91.40;98393.91;4152140;28;20752;-81
2023/08/12 07:59:10;;;;;;;6.83;6.17;;;;;;;25.35;91.40;98405.88;4156160;28;20634;-82
2023/08/12 08:01:14;;;;;;;6.83;6.23;;;;;;;25.37;91.49;98393.13;4137016;28;20726;-80
2023/08/12 08:03:18;;;;;;;8.70;6.60;;;;;;;25.43;91.58;98394.25;4135820;28;20686;-81
2023/08/12 08:05:21;;;;;;;6.90;6.20;;;;;;;25.82;90.42;98404.31;4153478;28;21195;-82
2023/08/12 08:07:24;;;;;;;7.33;6.50;;;;;;;25.88;90.02;98392.88;4153319;28;20736;-81
2023/08/12 08:09:27;;;;;;;7.33;6.63;;;;;;;26.27;91.22;98399.41;4135231;28;20745;-81
2023/08/12 08:11:31;;;;;;;8.10;6.23;;;;;;;26.57;87.00;98390.94;4143778;28;20661;-81
2023/08/12 08:13:35;;;;;;;6.30;5.70;;;;;;;26.93;86.91;98386.25;4147973;28;21000;-81
2023/08/12 08:15:37;;;;;;;7.27;6.57;;;;;;;27.20;85.15;98383.47;4139644;28;20631;-81
2023/08/12 08:17:42;;;;;;;8.40;7.20;;;;;;;27.44;85.21;98385.59;4162211;28;20610;-81
2023/08/12 08:19:45;;;;;;;7.00;6.30;;;;;;;27.58;83.48;98385.44;4156558;28;20694;-82
2023/08/12 08:21:48;;;;;;;6.63;6.03;;;;;;;27.84;84.09;98384.66;4156433;28;20630;-80
2023/08/12 08:23:51;;;;;;;6.30;5.70;;;;;;;28.07;81.21;98385.88;4153002;28;20720;-81
2023/08/12 08:25:54;;;;;;;6.57;5.67;;;;;;;28.26;80.23;98383.22;4158938;28;20625;-81
2023/08/12 08:27:57;;;;;;;7.50;6.17;;;;;;;28.51;79.77;98385.06;4143180;28;20701;-73
2023/08/12 08:30:01;;;;;;;6.97;6.27;;;;;;;28.76;79.69;98382.56;4140223;28;20639;-73
2023/08/12 08:32:04;;;;;;;6.50;5.87;;;;;;;28.96;79.23;98376.09;4141116;28;20650;-73
2023/08/12 08:34:09;;;;;;;7.80;6.20;;;;;;;29.15;78.70;98373.31;4123506;28;20705;-73
2023/08/12 08:36:12;;;;;;;6.27;5.67;;;;;;;29.28;75.37;98367.91;4144364;28;20911;-73
2023/08/12 08:38:15;;;;;;;6.50;5.90;;;;;;;29.42;74.19;98363.28;4138671;28;20673;-73
2023/08/12 08:40:18;;;;;;;6.23;5.63;;;;;;;29.54;72.07;98362.38;4158278;28;20709;-75
2023/08/12 08:42:25;;;;;;;7.10;6.40;;;;;;;29.65;71.99;98365.19;4164391;28;20614;-74
2023/08/12 08:44:30;;;;;;;7.07;6.37;;;;;;;29.71;73.45;98374.25;4163353;28;21269;-73
2023/08/12 08:46:33;;;;;;;6.93;6.23;;;;;;;29.80;72.09;98364.91;4167490;28;21029;-74
2023/08/12 08:48:36;;;;;;;6.60;6.00;;;;;;;29.88;73.79;98362.78;4160892;28;21053;-74
2023/08/12 08:50:45;;;;;;;6.53;5.83;;;;;;;29.96;74.53;98357.97;4157407;28;20664;-75
2023/08/12 08:52:50;;;;;;;6.50;5.90;;;;;;;29.78;70.15;98350.81;4146156;28;20710;-74
2023/08/12 08:54:54;;;;;;;6.93;5.40;;;;;;;29.60;72.25;98356.13;4137932;28;20637;-75
2023/08/12 08:56:57;;;;;;;6.07;5.13;;;;;;;29.54;74.52;98346.22;4160501;28;20638;-73
2023/08/12 08:59:13;;;;;;;5.53;5.03;;;;;;;29.45;77.59;98352.91;4164463;28;21330;-73
2023/08/12 09:01:19;;;;;;;6.77;5.30;;;;;;;29.44;75.13;98356.66;4166501;28;20639;-74
2023/08/12 09:03:22;;;;;;;7.73;6.90;;;;;;;29.62;75.28;98362.13;4164032;28;20628;-73
2023/08/12 09:05:26;;;;;;;6.20;5.17;;;;;;;29.55;75.28;98354.06;4155076;28;21243;-74
2023/08/12 09:07:32;;;;;;;6.07;5.57;;;;;;;29.69;75.41;98352.13;4143152;28;20697;-74
2023/08/12 09:09:36;;;;;;;6.20;5.60;;;;;;;29.79;74.19;98357.88;4156179;28;20665;-73
2023/08/12 09:11:40;;;;;;;6.60;5.80;;;;;;;29.66;73.73;98349.88;4144830;28;21196;-73
2023/08/12 09:13:43;;;;;;;6.33;5.40;;;;;;;29.52;74.07;98348.31;4157151;28;21506;-74
2023/08/12 09:15:46;;;;;;;6.47;5.40;;;;;;;29.40;75.24;98349.22;4120886;28;21056;-74
2023/08/12 09:17:49;;;;;;;7.50;5.50;;;;;;;29.51;74.98;98354.72;4133425;28;20647;-73
2023/08/12 09:19:52;;;;;;;5.57;5.07;;;;;;;29.68;75.18;98353.16;4137198;28;21428;-73
2023/08/12 09:21:55;;;;;;;5.90;5.30;;;;;;;29.99;74.88;98356.69;4141916;28;20619;-73
2023/08/12 09:24:03;;;;;;;5.80;5.20;;;;;;;30.21;73.48;98356.06;4139957;28;26094;-73
2023/08/12 09:26:13;;;;;;;8.73;6.00;;;;;;;30.11;72.55;98350.34;4140461;28;20721;-73
2023/08/12 09:28:17;;;;;;;6.30;5.63;;;;;;;29.99;72.39;98345.91;4154558;28;20680;-73
2023/08/12 09:30:22;;;;;;;6.67;5.97;;;;;;;29.98;72.25;98345.09;4143406;28;20639;-74
2023/08/12 09:32:25;;;;;;;6.13;5.53;;;;;;;29.99;74.41;98345.91;4154741;28;20648;-74
2023/08/12 09:34:28;;;;;;;6.33;5.73;;;;;;;29.99;73.80;98337.84;4154512;28;20678;-73
2023/08/12 09:36:32;;;;;;;6.70;5.13;;;;;;;30.08;76.44;98348.09;4156196;28;20986;-82